createdAt,value
2018-03-21T00:01:50.303Z,20.98
2018-03-21T00:04:17.132Z,22.70
2018-03-21T00:06:43.915Z,21.75
2018-03-21T00:09:10.807Z,22.80
2018-03-21T00:11:37.752Z,23.00
2018-03-21T00:14:04.290Z,24.23
2018-03-21T00:16:30.856Z,23.58
2018-03-21T00:18:57.838Z,22.90
2018-03-21T00:21:24.370Z,22.52
2018-03-21T00:23:50.942Z,22.42
2018-03-21T00:26:17.506Z,21.00
2018-03-21T00:28:44.043Z,23.40
2018-03-21T00:31:10.602Z,22.73
2018-03-21T00:33:37.183Z,23.17
2018-03-21T00:36:03.782Z,23.20
2018-03-21T00:38:30.338Z,21.95
2018-03-21T00:40:56.905Z,24.12
2018-03-21T00:43:23.434Z,21.87
2018-03-21T00:45:50.009Z,24.95
2018-03-21T00:48:16.570Z,24.42
2018-03-21T00:50:43.489Z,25.15
2018-03-21T00:53:10.054Z,24.00
2018-03-21T00:55:36.613Z,25.58
2018-03-21T00:58:03.184Z,23.50
2018-03-21T01:00:30.167Z,25.95
2018-03-21T01:02:56.749Z,23.08
2018-03-21T01:05:23.289Z,24.83
2018-03-21T01:07:49.868Z,24.60
2018-03-21T01:10:16.459Z,23.92
2018-03-21T01:12:42.997Z,26.05
2018-03-21T01:15:09.591Z,25.42
2018-03-21T01:17:36.165Z,25.30
2018-03-21T01:20:02.810Z,25.30
2018-03-21T01:22:29.422Z,24.67
2018-03-21T01:24:55.986Z,26.75
2018-03-21T01:27:22.521Z,24.48
2018-03-21T01:29:49.078Z,24.27
2018-03-21T01:32:15.646Z,27.65
2018-03-21T01:34:42.191Z,23.70
2018-03-21T01:37:08.813Z,25.62
2018-03-21T01:39:35.392Z,26.15
2018-03-21T01:42:01.921Z,27.83
2018-03-21T01:44:28.490Z,26.02
2018-03-21T01:46:55.056Z,28.55
2018-03-21T01:49:21.983Z,26.75
2018-03-21T01:51:48.557Z,25.40
2018-03-21T01:54:15.519Z,24.00
2018-03-21T01:56:42.062Z,27.25
2018-03-21T01:59:09.001Z,27.75
2018-03-21T02:01:35.582Z,27.00
2018-03-21T02:04:02.121Z,26.48
2018-03-21T02:06:28.689Z,26.48
2018-03-21T02:08:55.253Z,28.20
2018-03-21T02:11:21.785Z,28.48
2018-03-21T02:13:48.345Z,29.63
2018-03-21T02:16:14.909Z,27.73
2018-03-21T02:18:41.473Z,29.00
2018-03-21T02:21:08.037Z,25.52
2018-03-21T02:23:34.989Z,28.55
2018-03-21T02:26:01.902Z,27.75
2018-03-21T02:28:28.464Z,29.90
2018-03-21T02:30:55.070Z,29.80
2018-03-21T02:33:21.598Z,30.62
2018-03-21T02:35:48.538Z,30.55
2018-03-21T02:38:15.114Z,29.58
2018-03-21T02:40:41.656Z,28.33
2018-03-21T02:43:08.222Z,29.27
2018-03-21T02:45:34.788Z,27.67
2018-03-21T02:48:01.399Z,28.50
2018-03-21T02:50:27.962Z,28.75
2018-03-21T02:52:54.530Z,31.10
2018-03-21T02:55:21.078Z,31.42
2018-03-21T02:57:47.682Z,29.17
2018-03-21T03:00:14.642Z,29.35
2018-03-21T03:02:41.186Z,28.75
2018-03-21T03:05:08.139Z,30.98
2018-03-21T03:07:35.075Z,28.80
2018-03-21T03:10:01.611Z,27.10
2018-03-21T03:12:28.177Z,26.17
2018-03-21T03:14:54.745Z,27.20
2018-03-21T03:17:21.645Z,23.35
2018-03-21T03:19:48.246Z,24.52
2018-03-21T03:22:14.857Z,23.80
2018-03-21T03:24:41.381Z,22.65
2018-03-21T03:27:07.949Z,22.45
2018-03-21T03:29:34.511Z,22.08
2018-03-21T03:32:01.054Z,23.00
2018-03-21T03:34:27.625Z,21.12
2018-03-21T03:36:54.618Z,22.90
2018-03-21T03:39:21.154Z,22.35
2018-03-21T03:41:47.726Z,21.20
2018-03-21T03:44:14.339Z,20.00
2018-03-21T03:46:40.940Z,20.65
2018-03-21T03:49:07.521Z,20.58
2018-03-21T03:51:34.456Z,20.62
2018-03-21T03:54:00.993Z,21.80
2018-03-21T03:56:27.556Z,21.37
2018-03-21T03:58:54.135Z,20.40
2018-03-21T04:01:27.803Z,21.42
2018-03-21T04:03:54.430Z,20.88
2018-03-21T04:06:20.965Z,21.00
2018-03-21T04:08:47.537Z,21.77
2018-03-21T04:11:14.097Z,23.02
2018-03-21T04:13:41.021Z,23.02
2018-03-21T04:16:07.583Z,21.73
2018-03-21T04:18:34.206Z,21.80
2018-03-21T04:21:04.682Z,22.87
2018-03-21T04:23:31.258Z,22.77
2018-03-21T04:25:58.229Z,23.40
2018-03-21T04:28:24.785Z,23.73
2018-03-21T04:30:51.394Z,21.65
2018-03-21T04:33:17.966Z,22.45
2018-03-21T04:35:44.877Z,21.85
2018-03-21T04:38:11.446Z,22.60
2018-03-21T04:40:38.008Z,21.87
2018-03-21T04:43:04.902Z,21.70
2018-03-21T04:45:31.525Z,20.33
2018-03-21T04:47:58.541Z,20.10
2018-03-21T04:50:25.135Z,22.85
2018-03-21T04:52:52.086Z,21.35
2018-03-21T04:55:19.026Z,21.02
2018-03-21T04:57:45.613Z,22.05
2018-03-21T05:00:12.185Z,21.37
2018-03-21T05:02:38.747Z,21.10
2018-03-21T05:05:05.330Z,19.20
2018-03-21T05:07:32.266Z,21.50
2018-03-21T05:09:58.855Z,20.85
2018-03-21T05:12:25.382Z,19.80
2018-03-21T05:14:52.338Z,19.87
2018-03-21T05:17:19.279Z,20.02
2018-03-21T05:19:45.858Z,17.83
2018-03-21T05:22:12.434Z,17.10
2018-03-21T05:24:39.006Z,18.05
2018-03-21T05:27:05.546Z,19.20
2018-03-21T05:29:32.113Z,16.83
2018-03-21T05:31:58.694Z,17.45
2018-03-21T05:34:25.249Z,17.90
2018-03-21T05:36:51.836Z,17.65
2018-03-21T05:39:18.397Z,18.75
2018-03-21T05:41:44.930Z,15.70
2018-03-21T05:44:11.510Z,15.07
2018-03-21T05:46:38.495Z,17.95
2018-03-21T05:49:05.030Z,16.12
2018-03-21T05:51:32.001Z,16.08
2018-03-21T05:53:59.456Z,15.40
2018-03-21T05:56:26.359Z,16.35
2018-03-21T05:58:52.967Z,16.15
2018-03-21T06:01:19.545Z,14.75
2018-03-21T06:03:46.078Z,14.48
2018-03-21T06:06:12.654Z,13.20
2018-03-21T06:08:39.231Z,13.62
2018-03-21T06:11:06.175Z,14.00
2018-03-21T06:13:32.741Z,13.80
2018-03-21T06:15:59.687Z,12.98
2018-03-21T06:18:26.605Z,13.45
2018-03-21T06:20:53.203Z,12.57
2018-03-21T06:23:20.147Z,11.45
2018-03-21T06:25:46.678Z,12.40
2018-03-21T06:28:13.269Z,11.85
2018-03-21T06:30:39.845Z,12.27
2018-03-21T06:33:06.378Z,11.25
2018-03-21T06:35:32.998Z,12.18
2018-03-21T06:37:59.972Z,11.55
2018-03-21T06:40:26.562Z,11.00
2018-03-21T06:42:53.145Z,11.80
2018-03-21T06:45:20.078Z,11.02
2018-03-21T06:47:46.611Z,10.85
2018-03-21T06:50:13.493Z,9.23
2018-03-21T06:52:40.082Z,10.38
2018-03-21T06:55:06.623Z,10.25
2018-03-21T06:57:33.188Z,11.23
2018-03-21T06:59:59.749Z,9.88
2018-03-21T07:02:26.297Z,10.60
2018-03-21T07:04:52.874Z,9.68
2018-03-21T07:07:19.437Z,9.32
2018-03-21T07:09:46.342Z,8.23
2018-03-21T07:12:12.952Z,9.80
2018-03-21T07:14:51.811Z,8.02
2018-03-21T07:17:18.382Z,8.82
2018-03-21T07:19:45.003Z,10.60
2018-03-21T07:22:11.549Z,8.77
2018-03-21T07:24:38.173Z,9.15
2018-03-21T07:27:05.110Z,9.50
2018-03-21T07:29:31.654Z,8.85
2018-03-21T07:31:58.288Z,8.23
2018-03-21T07:34:24.851Z,9.10
2018-03-21T07:36:51.400Z,8.85
2018-03-21T07:39:18.006Z,8.60
2018-03-21T07:41:44.578Z,7.30
2018-03-21T07:44:11.108Z,8.80
2018-03-21T07:46:37.677Z,7.10
2018-03-21T07:49:04.302Z,8.40
2018-03-21T07:51:30.837Z,7.97
2018-03-21T07:53:57.544Z,8.23
2018-03-21T07:56:24.134Z,6.50
2018-03-21T07:58:50.673Z,6.93
2018-03-21T08:01:17.241Z,7.22
2018-03-21T08:03:43.811Z,6.70
2018-03-21T08:06:10.346Z,6.40
2018-03-21T08:08:36.916Z,7.53
2018-03-21T08:11:03.485Z,6.35
2018-03-21T08:13:30.405Z,7.32
2018-03-21T08:15:57.055Z,6.80
2018-03-21T08:18:23.628Z,6.75
2018-03-21T08:20:50.570Z,7.62
2018-03-21T08:23:17.158Z,7.18
2018-03-21T08:25:43.750Z,7.95
2018-03-21T08:28:10.281Z,6.93
2018-03-21T08:30:36.862Z,7.55
2018-03-21T08:33:03.442Z,7.45
2018-03-21T08:35:30.342Z,7.20
2018-03-21T08:37:56.941Z,7.35
2018-03-21T08:40:23.549Z,7.85
2018-03-21T08:42:50.095Z,8.30
2018-03-21T08:45:16.662Z,7.57
2018-03-21T08:47:43.238Z,7.68
2018-03-21T08:50:09.796Z,6.65
2018-03-21T08:52:36.366Z,7.15
2018-03-21T08:55:03.007Z,7.80
2018-03-21T08:57:29.548Z,8.20
2018-03-21T08:59:56.129Z,7.87
2018-03-21T09:02:22.721Z,7.50
2018-03-21T09:04:49.270Z,7.95
2018-03-21T09:07:16.213Z,8.32
2018-03-21T09:09:43.158Z,7.80
2018-03-21T09:12:09.709Z,8.23
2018-03-21T09:14:36.273Z,8.13
2018-03-21T09:17:03.245Z,7.65
2018-03-21T09:19:29.781Z,7.40
2018-03-21T09:21:56.784Z,8.98
2018-03-21T09:24:23.367Z,7.82
2018-03-21T09:26:50.282Z,8.15
2018-03-21T09:29:16.857Z,9.90
2018-03-21T09:31:43.441Z,10.65
2018-03-21T09:34:10.024Z,9.57
2018-03-21T09:36:36.611Z,10.73
2018-03-21T09:39:03.721Z,10.90
2018-03-21T09:41:30.277Z,11.27
2018-03-21T09:43:56.872Z,9.88
2018-03-21T09:46:23.836Z,9.30
2018-03-21T09:48:50.741Z,10.30
2018-03-21T09:51:17.311Z,10.75
2018-03-21T09:53:43.895Z,10.20
2018-03-21T09:56:10.809Z,10.70
2018-03-21T09:58:37.394Z,11.00
2018-03-21T10:01:04.406Z,11.93
2018-03-21T10:03:30.965Z,11.20
2018-03-21T10:05:57.564Z,10.15
2018-03-21T10:08:24.133Z,10.80
2018-03-21T10:10:50.694Z,11.05
2018-03-21T10:13:17.261Z,10.80
2018-03-21T10:15:43.876Z,11.50
2018-03-21T10:18:10.443Z,11.32
2018-03-21T10:20:37.040Z,10.50
2018-03-21T10:23:03.624Z,11.65
2018-03-21T10:25:30.159Z,11.40
2018-03-21T10:27:56.734Z,11.38
2018-03-21T10:30:23.337Z,10.93
2018-03-21T10:32:49.937Z,12.23
2018-03-21T10:35:16.514Z,10.50
2018-03-21T10:37:43.453Z,11.25
2018-03-21T10:40:10.014Z,10.70
2018-03-21T10:42:36.587Z,10.10
2018-03-21T10:45:03.333Z,10.93
2018-03-21T10:47:30.229Z,9.98
2018-03-21T10:49:56.810Z,8.73
2018-03-21T10:52:23.433Z,8.95
2018-03-21T10:54:50.942Z,8.57
2018-03-21T10:57:17.890Z,9.23
2018-03-21T10:59:44.830Z,9.93
2018-03-21T11:02:13.388Z,10.20
2018-03-21T11:04:39.979Z,11.30
2018-03-21T11:07:06.558Z,11.57
2018-03-21T11:09:33.097Z,10.95
2018-03-21T11:11:59.686Z,10.20
2018-03-21T11:14:26.293Z,9.05
2018-03-21T11:16:53.330Z,9.30
2018-03-21T11:19:19.910Z,9.45
2018-03-21T11:21:46.585Z,8.98
2018-03-21T11:24:13.119Z,8.95
2018-03-21T11:26:39.690Z,9.05
2018-03-21T11:29:06.283Z,9.52
2018-03-21T11:31:33.229Z,10.52
2018-03-21T11:34:00.439Z,11.10
2018-03-21T11:36:27.089Z,9.60
2018-03-21T11:38:53.650Z,10.60
2018-03-21T11:41:20.218Z,10.40
2018-03-21T11:43:46.815Z,9.18
2018-03-21T11:46:13.377Z,7.90
2018-03-21T11:48:39.941Z,9.43
2018-03-21T11:51:06.515Z,9.30
2018-03-21T11:53:35.200Z,9.23
2018-03-21T11:56:01.945Z,9.95
2018-03-21T11:58:28.647Z,8.70
2018-03-21T12:00:55.552Z,8.13
2018-03-21T12:03:22.142Z,9.30
2018-03-21T12:05:49.102Z,8.85
2018-03-21T12:08:16.018Z,8.85
2018-03-21T12:10:42.591Z,9.50
2018-03-21T12:13:09.534Z,9.20
2018-03-21T12:15:36.082Z,9.35
2018-03-21T12:18:02.674Z,9.75
2018-03-21T12:20:29.263Z,8.85
2018-03-21T12:22:55.843Z,9.35
2018-03-21T12:25:22.402Z,9.07
2018-03-21T12:27:48.965Z,8.07
2018-03-21T12:30:15.871Z,8.13
2018-03-21T12:32:42.434Z,8.25
2018-03-21T12:35:09.006Z,7.45
2018-03-21T12:37:35.534Z,7.87
2018-03-21T12:40:02.114Z,8.10
2018-03-21T12:42:29.053Z,9.95
2018-03-21T12:44:55.614Z,10.40
2018-03-21T12:47:22.599Z,10.77
2018-03-21T12:49:49.195Z,10.00
2018-03-21T12:52:15.775Z,9.77
2018-03-21T12:54:42.741Z,9.88
2018-03-21T12:57:09.305Z,9.73
2018-03-21T12:59:35.840Z,9.68
2018-03-21T13:02:02.421Z,9.77
2018-03-21T13:04:28.985Z,10.40
2018-03-21T13:06:55.537Z,8.52
2018-03-21T13:09:22.113Z,7.65
2018-03-21T13:11:49.034Z,8.55
2018-03-21T13:14:15.610Z,8.90
2018-03-21T13:16:42.549Z,7.12
2018-03-21T13:19:09.191Z,6.75
2018-03-21T13:21:35.788Z,5.85
2018-03-21T13:24:02.398Z,6.07
2018-03-21T13:26:28.969Z,4.70
2018-03-21T13:28:55.514Z,6.30
2018-03-21T13:31:22.470Z,6.82
2018-03-21T13:33:49.034Z,5.55
2018-03-21T13:36:15.556Z,6.72
2018-03-21T13:38:42.515Z,5.72
2018-03-21T13:41:09.470Z,5.75
2018-03-21T13:43:36.389Z,6.55
2018-03-21T13:46:02.994Z,7.60
2018-03-21T13:48:29.610Z,7.00
2018-03-21T13:50:56.194Z,6.47
2018-03-21T13:53:22.803Z,6.18
2018-03-21T13:55:49.385Z,7.05
2018-03-21T13:58:15.909Z,8.05
2018-03-21T14:00:42.474Z,7.90
2018-03-21T14:03:09.044Z,7.62
2018-03-21T14:05:35.591Z,7.43
2018-03-21T14:08:02.162Z,7.10
2018-03-21T14:10:28.721Z,5.95
2018-03-21T14:12:55.250Z,7.62
2018-03-21T14:15:21.825Z,7.15
2018-03-21T14:17:48.417Z,7.55
2018-03-21T14:20:14.958Z,7.07
2018-03-21T14:22:41.550Z,8.18
2018-03-21T14:25:08.103Z,8.57
2018-03-21T14:27:34.644Z,7.82
2018-03-21T14:30:01.249Z,8.50
2018-03-21T14:32:27.814Z,8.55
2018-03-21T14:34:54.378Z,7.65
2018-03-21T14:37:20.945Z,6.95
2018-03-21T14:39:47.520Z,7.00
2018-03-21T14:42:14.076Z,6.43
2018-03-21T14:44:40.665Z,7.93
2018-03-21T14:47:07.238Z,7.75
2018-03-21T14:49:33.833Z,7.50
2018-03-21T14:52:00.478Z,7.32
2018-03-21T14:54:27.055Z,6.95
2018-03-21T14:56:53.605Z,6.50
2018-03-21T14:59:20.229Z,7.60
2018-03-21T15:01:46.808Z,8.30
2018-03-21T15:04:13.351Z,6.80
2018-03-21T15:06:39.915Z,7.22
2018-03-21T15:09:06.594Z,7.35
2018-03-21T15:11:33.177Z,6.50
2018-03-21T15:13:59.755Z,7.43
2018-03-21T15:16:33.197Z,6.90
2018-03-21T15:19:00.141Z,6.70
2018-03-21T15:21:26.797Z,5.95
2018-03-21T15:23:53.346Z,6.12
2018-03-21T15:26:20.282Z,7.10
2018-03-21T15:28:46.893Z,6.80
2018-03-21T15:31:13.445Z,7.20
2018-03-21T15:33:40.014Z,6.68
2018-03-21T15:36:06.578Z,6.90
2018-03-21T15:38:33.118Z,6.62
2018-03-21T15:40:59.685Z,6.45
2018-03-21T15:43:26.254Z,7.15
2018-03-21T15:45:52.802Z,7.65
2018-03-21T15:48:19.386Z,9.23
2018-03-21T15:50:45.950Z,7.78
2018-03-21T15:53:12.502Z,8.00
2018-03-21T15:55:39.110Z,7.82
2018-03-21T15:58:05.682Z,8.10
2018-03-21T16:00:32.257Z,8.05
2018-03-21T16:02:58.859Z,8.55
2018-03-21T16:05:25.441Z,8.15
2018-03-21T16:07:52.005Z,8.38
2018-03-21T16:10:18.577Z,7.28
2018-03-21T16:12:45.564Z,8.20
2018-03-21T16:15:12.122Z,8.80
2018-03-21T16:17:38.703Z,7.65
2018-03-21T16:20:05.278Z,7.53
2018-03-21T16:22:31.860Z,7.68
2018-03-21T16:24:58.431Z,8.48
2018-03-21T16:27:24.998Z,8.50
2018-03-21T16:29:51.538Z,8.00
2018-03-21T16:32:18.102Z,7.37
2018-03-21T16:34:45.042Z,7.60
2018-03-21T16:37:11.610Z,7.50
2018-03-21T16:39:38.566Z,8.98
2018-03-21T16:42:05.530Z,7.00
2018-03-21T16:44:32.438Z,8.60
2018-03-21T16:46:59.018Z,9.10
2018-03-21T16:49:25.986Z,7.50
2018-03-21T16:51:52.902Z,7.68
2018-03-21T16:54:19.479Z,6.90
2018-03-21T16:56:46.514Z,7.25
2018-03-21T16:59:13.045Z,6.93
2018-03-21T17:01:39.637Z,6.40
2018-03-21T17:04:06.578Z,6.55
2018-03-21T17:06:33.514Z,6.55
2018-03-21T17:09:00.145Z,6.53
2018-03-21T17:11:26.758Z,8.15
2018-03-21T17:13:53.318Z,7.45
2018-03-21T17:16:19.898Z,7.30
2018-03-21T17:18:46.490Z,8.13
2018-03-21T17:21:13.426Z,7.40
2018-03-21T17:23:40.120Z,7.35
2018-03-21T17:26:06.678Z,8.50
2018-03-21T17:28:40.061Z,8.90
2018-03-21T17:31:06.998Z,8.23
2018-03-21T17:33:33.909Z,8.60
2018-03-21T17:36:00.482Z,8.10
2018-03-21T17:38:27.052Z,8.70
2018-03-21T17:40:53.594Z,8.23
2018-03-21T17:43:20.164Z,8.13
2018-03-21T17:45:46.749Z,8.40
2018-03-21T17:48:13.285Z,9.35
2018-03-21T17:50:39.874Z,9.30
2018-03-21T17:53:06.440Z,8.68
2018-03-21T17:55:33.338Z,11.95
2018-03-21T17:57:59.930Z,9.23
2018-03-21T18:00:26.498Z,8.45
2018-03-21T18:02:53.430Z,9.60
2018-03-21T18:05:20.010Z,9.05
2018-03-21T18:07:46.938Z,9.07
2018-03-21T18:10:13.486Z,9.68
2018-03-21T18:12:40.137Z,9.18
2018-03-21T18:15:07.091Z,10.25
2018-03-21T18:17:33.647Z,9.55
2018-03-21T18:20:00.626Z,8.95
2018-03-21T18:22:27.186Z,8.55
2018-03-21T18:24:53.775Z,9.00
2018-03-21T18:27:20.350Z,10.10
2018-03-21T18:29:47.292Z,10.00
2018-03-21T18:32:13.822Z,9.95
2018-03-21T18:34:40.383Z,9.30
2018-03-21T18:37:07.326Z,11.85
2018-03-21T18:39:33.863Z,11.12
2018-03-21T18:42:00.438Z,10.63
2018-03-21T18:44:27.014Z,11.60
2018-03-21T18:46:53.924Z,10.95
2018-03-21T18:49:20.509Z,13.73
2018-03-21T18:51:47.094Z,11.80
2018-03-21T18:54:13.632Z,10.77
2018-03-21T18:56:40.217Z,10.52
2018-03-21T18:59:06.806Z,12.50
2018-03-21T19:01:33.362Z,11.35
2018-03-21T19:03:59.939Z,13.32
2018-03-21T19:06:26.506Z,18.17
2018-03-21T19:08:53.086Z,12.88
2018-03-21T19:11:19.754Z,12.55
2018-03-21T19:13:46.338Z,13.40
2018-03-21T19:16:12.909Z,12.80
2018-03-21T19:18:39.488Z,13.15
2018-03-21T19:21:06.078Z,12.75
2018-03-21T19:23:32.669Z,11.77
2018-03-21T19:25:59.602Z,12.10
2018-03-21T19:28:26.173Z,11.52
2018-03-21T19:30:53.081Z,12.25
2018-03-21T19:33:19.658Z,11.68
2018-03-21T19:35:46.242Z,12.00
2018-03-21T19:38:13.145Z,11.80
2018-03-21T19:40:39.731Z,10.68
2018-03-21T19:43:06.350Z,11.20
2018-03-21T19:45:32.888Z,12.10
2018-03-21T19:47:59.471Z,11.07
2018-03-21T19:50:26.425Z,11.38
2018-03-21T19:52:53.326Z,10.93
2018-03-21T19:55:26.865Z,11.63
2018-03-21T19:57:53.453Z,12.70
2018-03-21T20:00:20.358Z,11.80
2018-03-21T20:02:46.991Z,17.73
2018-03-21T20:05:13.542Z,17.55
2018-03-21T20:07:40.090Z,15.98
2018-03-21T20:10:06.658Z,14.13
2018-03-21T20:12:34.006Z,13.62
2018-03-21T20:15:00.582Z,12.35
2018-03-21T20:17:27.150Z,12.73
2018-03-21T20:19:54.689Z,11.38
2018-03-21T20:22:21.230Z,12.25
2018-03-21T20:24:48.171Z,11.40
2018-03-21T20:27:14.738Z,10.90
2018-03-21T20:29:42.181Z,11.40
2018-03-21T20:32:16.614Z,11.98
2018-03-21T20:34:44.094Z,12.37
2018-03-21T20:37:10.679Z,13.48
2018-03-21T20:39:38.071Z,12.40
2018-03-21T20:42:05.022Z,12.50
2018-03-21T20:44:31.598Z,11.88
2018-03-21T20:46:58.162Z,12.75
2018-03-21T20:49:24.730Z,12.80
2018-03-21T20:51:51.305Z,13.20
2018-03-21T20:54:17.910Z,12.95
2018-03-21T20:56:44.443Z,12.90
2018-03-21T20:59:11.076Z,12.10
2018-03-21T21:01:38.024Z,11.73
2018-03-21T21:04:04.635Z,12.75
2018-03-21T21:06:31.202Z,11.63
2018-03-21T21:08:58.194Z,13.95
2018-03-21T21:11:24.733Z,11.48
2018-03-21T21:13:51.427Z,13.00
2018-03-21T21:16:18.013Z,12.85
2018-03-21T21:18:44.922Z,13.25
2018-03-21T21:21:11.890Z,14.20
2018-03-21T21:23:38.495Z,17.05
2018-03-21T21:26:05.138Z,14.82
2018-03-21T21:28:31.727Z,13.00
2018-03-21T21:30:58.310Z,14.02
2018-03-21T21:33:25.805Z,13.52
2018-03-21T21:35:52.374Z,16.05
2018-03-21T21:38:18.946Z,13.00
2018-03-21T21:40:45.486Z,14.02
2018-03-21T21:43:12.063Z,12.85
2018-03-21T21:45:38.646Z,11.98
2018-03-21T21:48:05.277Z,13.10
2018-03-21T21:50:31.854Z,13.00
2018-03-21T21:52:58.431Z,13.23
2018-03-21T21:55:24.965Z,12.80
2018-03-21T21:57:51.544Z,13.20
2018-03-21T22:00:18.586Z,14.20
2018-03-21T22:02:45.166Z,13.05
2018-03-21T22:05:12.119Z,13.25
2018-03-21T22:07:39.075Z,12.77
2018-03-21T22:10:06.058Z,11.65
2018-03-21T22:12:32.643Z,13.20
2018-03-21T22:14:59.246Z,13.15
2018-03-21T22:17:26.205Z,11.52
2018-03-21T22:19:53.134Z,12.20
2018-03-21T22:22:20.073Z,12.85
2018-03-21T22:24:46.651Z,13.25
2018-03-21T22:27:13.285Z,12.63
2018-03-21T22:29:40.727Z,11.25
2018-03-21T22:32:07.398Z,13.10
2018-03-21T22:34:33.970Z,12.20
2018-03-21T22:37:00.937Z,14.30
2018-03-21T22:39:27.465Z,12.82
2018-03-21T22:41:54.423Z,11.65
2018-03-21T22:44:21.376Z,13.52
2018-03-21T22:46:48.294Z,12.63
2018-03-21T22:49:14.858Z,12.43
2018-03-21T22:51:41.425Z,13.10
2018-03-21T22:54:08.359Z,12.57
2018-03-21T22:56:34.918Z,12.60
2018-03-21T22:59:01.482Z,13.05
2018-03-21T23:01:28.408Z,12.70
2018-03-21T23:03:54.973Z,12.70
2018-03-21T23:06:21.910Z,12.10
2018-03-21T23:08:48.530Z,12.00
2018-03-21T23:11:15.085Z,13.40
2018-03-21T23:13:41.686Z,11.48
2018-03-21T23:16:08.595Z,12.65
2018-03-21T23:18:35.162Z,11.35
2018-03-21T23:21:01.747Z,11.45
2018-03-21T23:23:28.642Z,12.70
2018-03-21T23:25:55.245Z,12.65
2018-03-21T23:28:22.171Z,12.13
2018-03-21T23:30:48.718Z,13.57
2018-03-21T23:33:15.302Z,11.82
2018-03-21T23:35:41.865Z,12.57
2018-03-21T23:38:08.430Z,12.40
2018-03-21T23:40:35.043Z,11.52
2018-03-21T23:43:01.983Z,11.55
2018-03-21T23:45:28.510Z,12.25
2018-03-21T23:47:55.080Z,12.23
2018-03-21T23:50:22.026Z,12.05
2018-03-21T23:52:48.562Z,10.90
2018-03-21T23:55:15.160Z,10.45
2018-03-21T23:57:41.733Z,10.07
